Time;durP1;ratioP1;P1;durP2;ratioP2;P2;SDS_P1;SDS_P2;PMS_P1;PMS_P2;Temp;Humidity;BMP_temperature;BMP_pressure;BME280_temperature;BME280_humidity;BME280_pressure;Samples;Min_cycle;Max_cycle;Signal;HPM_P1;HPM_P2
2023/10/10 00:00:55;;;;;;;10.90;3.00;;;;;;;15.36;100.00;101965.94;10471689;28;20068;-67
2023/10/10 00:06:18;;;;;;;14.55;2.50;;;;;;;15.31;100.00;101968.66;10456850;28;20124;-67
2023/10/10 00:11:48;;;;;;;13.02;2.88;;;;;;;15.30;100.00;101973.94;10482158;28;20106;-67
2023/10/10 00:17:10;;;;;;;7.25;2.45;;;;;;;15.29;100.00;101969.63;10475694;28;20086;-67
2023/10/10 00:22:35;;;;;;;6.80;2.10;;;;;;;15.26;100.00;101960.13;10476578;28;20068;-67
2023/10/10 00:28:05;;;;;;;14.50;2.22;;;;;;;15.33;100.00;101961.66;10467266;28;20114;-66
2023/10/10 00:33:26;;;;;;;13.98;2.80;;;;;;;15.37;100.00;101975.44;10478946;28;20052;-66
2023/10/10 00:44:29;;;;;;;8.65;2.13;;;;;;;15.32;100.00;101954.75;10470943;28;20127;-67
2023/10/10 00:49:51;;;;;;;7.68;2.10;;;;;;;15.29;100.00;101951.38;10468543;28;20063;-67
2023/10/10 00:55:12;;;;;;;8.05;2.20;;;;;;;15.28;100.00;101947.03;10464669;28;20105;-66
2023/10/10 01:00:35;;;;;;;8.90;2.22;;;;;;;15.28;100.00;101955.72;10465329;28;20043;-66
2023/10/10 01:05:58;;;;;;;7.30;2.03;;;;;;;15.29;100.00;101941.78;10467079;28;20455;-66
2023/10/10 01:11:20;;;;;;;11.45;1.90;;;;;;;15.30;100.00;101933.06;10472620;28;20071;-66
2023/10/10 01:16:43;;;;;;;9.27;2.38;;;;;;;15.30;100.00;101934.81;10471718;28;20118;-66
2023/10/10 01:22:22;;;;;;;8.88;2.28;;;;;;;15.36;100.00;101937.22;10467242;28;20586;-66
2023/10/10 01:27:43;;;;;;;8.35;2.03;;;;;;;15.34;100.00;101931.22;10463726;28;20063;-66
2023/10/10 01:33:05;;;;;;;6.72;2.20;;;;;;;15.36;100.00;101935.50;10461866;28;20047;-66
2023/10/10 01:38:35;;;;;;;9.02;2.15;;;;;;;15.37;100.00;101936.31;10455829;28;20106;-67
2023/10/10 01:44:11;;;;;;;6.22;1.90;;;;;;;15.37;100.00;101915.44;10480100;28;20055;-67
2023/10/10 01:49:35;;;;;;;6.80;2.42;;;;;;;15.42;100.00;101924.03;10460124;28;20127;-67
2023/10/10 01:55:00;;;;;;;8.35;2.85;;;;;;;15.38;100.00;101927.59;10450993;28;20041;-67
2023/10/10 02:00:26;;;;;;;9.63;2.63;;;;;;;15.43;100.00;101917.91;10459633;28;20132;-67
2023/10/10 02:05:52;;;;;;;7.63;2.67;;;;;;;15.46;100.00;101917.78;10465135;28;20413;-67
2023/10/10 02:11:14;;;;;;;10.32;2.88;;;;;;;15.44;100.00;101919.63;10474706;28;20063;-67
2023/10/10 02:16:40;;;;;;;12.90;3.13;;;;;;;15.45;100.00;101923.94;10469881;28;20048;-67
2023/10/10 02:22:22;;;;;;;;;;;;;;;15.47;100.00;101922.13;10467136;28;20053;-67
2023/10/10 02:27:59;;;;;;;7.85;3.22;;;;;;;15.45;100.00;101906.53;10465976;28;19920;-67
2023/10/10 02:38:55;;;;;;;6.93;2.67;;;;;;;15.47;100.00;101899.50;10458871;28;20457;-67
2023/10/10 02:44:38;;;;;;;8.35;2.97;;;;;;;15.54;100.00;101907.97;10474750;28;20048;-67
2023/10/10 02:50:10;;;;;;;8.25;3.08;;;;;;;15.55;100.00;101910.53;10468032;28;20052;-67
2023/10/10 02:55:40;;;;;;;10.07;3.05;;;;;;;15.53;100.00;101893.22;10472982;28;20109;-67
2023/10/10 03:01:04;;;;;;;8.13;2.70;;;;;;;15.57;100.00;101908.72;10470264;28;20131;-67
2023/10/10 03:06:28;;;;;;;11.40;2.90;;;;;;;15.54;100.00;101884.50;10466989;28;20049;-67
2023/10/10 03:11:53;;;;;;;7.10;2.78;;;;;;;15.57;100.00;101886.97;10472593;28;20175;-67
2023/10/10 03:17:31;;;;;;;7.67;2.70;;;;;;;15.57;100.00;101897.41;10462511;28;20547;-67
2023/10/10 03:34:44;;;;;;;9.18;3.10;;;;;;;15.60;100.00;101882.50;10466348;28;20043;-67
2023/10/10 03:39:54;;;;;;;6.40;3.20;;;;;;;15.54;100.00;101866.22;10464901;28;20048;-67
2023/10/10 05:27:29;;;;;;;11.43;5.00;;;;;;;15.79;100.00;101864.47;10461213;28;20050;-67
2023/10/10 05:33:01;;;;;;;11.45;5.65;;;;;;;15.77;100.00;101853.22;10470666;28;20061;-67
2023/10/10 05:38:25;;;;;;;9.55;5.22;;;;;;;15.77;100.00;101848.00;10472609;28;20056;-67
2023/10/10 05:43:49;;;;;;;12.98;5.57;;;;;;;15.82;100.00;101857.38;10460735;28;20045;-67
2023/10/10 05:49:11;;;;;;;10.30;5.40;;;;;;;15.84;100.00;101854.75;10477432;28;20545;-67
2023/10/10 05:54:33;;;;;;;12.00;5.93;;;;;;;15.84;100.00;101854.75;10468432;28;20064;-67
2023/10/10 05:59:55;;;;;;;12.43;6.18;;;;;;;15.83;100.00;101838.22;10459052;28;20615;-67
2023/10/10 06:05:17;;;;;;;9.55;6.40;;;;;;;15.83;100.00;101832.13;10459198;28;20053;-67
2023/10/10 06:10:39;;;;;;;15.85;5.68;;;;;;;15.89;100.00;101852.81;10470060;28;20041;-67
2023/10/10 06:16:13;;;;;;;12.90;6.57;;;;;;;15.91;100.00;101851.84;10450442;28;20508;-67
2023/10/10 06:21:35;;;;;;;10.90;6.30;;;;;;;15.94;100.00;101845.66;10471919;28;20040;-67
2023/10/10 06:27:00;;;;;;;11.43;6.63;;;;;;;15.96;100.00;101855.16;10469317;28;20064;-67
2023/10/10 06:32:22;;;;;;;8.90;6.57;;;;;;;15.98;100.00;101847.25;10451630;28;20045;-67
2023/10/10 06:37:56;;;;;;;11.10;6.32;;;;;;;15.95;100.00;101843.00;10461768;28;20540;-67
2023/10/10 06:43:18;;;;;;;10.45;6.47;;;;;;;15.94;100.00;101843.06;10469855;28;20569;-67
2023/10/10 06:48:40;;;;;;;11.80;7.13;;;;;;;15.98;100.00;101842.03;10470820;28;20132;-67
2023/10/10 06:54:03;;;;;;;12.60;6.68;;;;;;;16.03;100.00;101845.34;10473213;28;20445;-67
2023/10/10 06:59:28;;;;;;;12.40;6.93;;;;;;;16.05;100.00;101838.28;10468469;28;20048;-66
2023/10/10 07:04:52;;;;;;;13.47;6.83;;;;;;;16.09;100.00;101848.59;10462531;28;20051;-66
2023/10/10 07:10:25;;;;;;;11.82;6.53;;;;;;;16.11;100.00;101848.53;10471685;28;20044;-67
2023/10/10 07:15:53;;;;;;;12.73;6.90;;;;;;;16.13;100.00;101857.16;10464970;28;20040;-67
2023/10/10 07:21:30;;;;;;;10.32;6.43;;;;;;;16.12;100.00;101863.28;10465573;28;20048;-67
2023/10/10 07:32:32;;;;;;;11.95;6.20;;;;;;;16.24;100.00;101848.94;10469342;28;20114;-67
2023/10/10 07:37:58;;;;;;;11.82;6.35;;;;;;;16.29;100.00;101858.28;10471134;28;20131;-67
2023/10/10 07:43:26;;;;;;;11.63;6.00;;;;;;;16.38;100.00;101855.34;10464742;28;20373;-67
2023/10/10 07:48:53;;;;;;;10.32;6.05;;;;;;;16.45;100.00;101854.19;10474688;28;20048;-67
2023/10/10 07:54:28;;;;;;;12.27;6.72;;;;;;;16.47;100.00;101852.41;10480816;28;20028;-67
2023/10/10 07:59:55;;;;;;;10.75;6.18;;;;;;;16.49;100.00;101845.38;10486593;28;20136;-67
2023/10/10 08:05:19;;;;;;;13.40;6.63;;;;;;;16.58;100.00;101859.84;10484403;28;20400;-68
2023/10/10 08:10:44;;;;;;;15.07;6.28;;;;;;;16.59;100.00;101848.50;10479009;28;20450;-68
2023/10/10 08:16:06;;;;;;;10.32;6.28;;;;;;;16.63;100.00;101832.63;10463290;28;20040;-67
2023/10/10 08:21:33;;;;;;;11.88;6.30;;;;;;;16.72;100.00;101832.25;10467557;28;20145;-67
2023/10/10 08:26:55;;;;;;;11.00;7.30;;;;;;;16.84;100.00;101825.69;10465217;28;20499;-67
2023/10/10 08:32:17;;;;;;;13.13;8.35;;;;;;;16.90;100.00;101805.38;10453386;28;20067;-67
2023/10/10 08:37:39;;;;;;;17.25;10.50;;;;;;;17.03;100.00;101816.22;10465159;28;20077;-67
2023/10/10 08:43:03;;;;;;;15.70;10.30;;;;;;;17.06;100.00;101806.47;10468480;28;20053;-67
2023/10/10 08:48:27;;;;;;;19.17;11.25;;;;;;;17.07;100.00;101802.06;10462120;28;20083;-67
2023/10/10 08:53:51;;;;;;;20.30;11.27;;;;;;;17.13;100.00;101791.38;10462004;28;20056;-67
2023/10/10 08:59:16;;;;;;;15.43;11.18;;;;;;;17.21;100.00;101788.44;10474458;28;20066;-67
2023/10/10 09:04:38;;;;;;;15.00;10.45;;;;;;;17.31;100.00;101792.34;10467355;28;20056;-67
2023/10/10 09:10:16;;;;;;;13.30;9.07;;;;;;;17.46;100.00;101797.78;10466760;28;20050;-67
2023/10/10 09:15:54;;;;;;;16.25;8.50;;;;;;;17.61;100.00;101780.59;10459825;28;20036;-67
2023/10/10 09:21:18;;;;;;;14.68;8.65;;;;;;;17.74;100.00;101780.03;10476790;28;20048;-66
2023/10/10 09:26:42;;;;;;;11.70;8.80;;;;;;;17.77;100.00;101772.00;10464850;28;20394;-66
2023/10/10 09:32:05;;;;;;;17.33;10.27;;;;;;;17.81;100.00;101791.06;10466443;28;20183;-66
2023/10/10 09:37:34;;;;;;;16.63;10.43;;;;;;;17.79;100.00;101792.88;10476346;28;20103;-66
2023/10/10 09:54:17;;;;;;;19.17;11.27;;;;;;;17.64;100.00;101777.84;10467248;28;20166;-67
2023/10/10 09:59:42;;;;;;;17.42;12.45;;;;;;;17.61;100.00;101757.06;10471783;28;20101;-67
2023/10/10 10:05:13;;;;;;;22.05;15.13;;;;;;;17.65;100.00;101753.38;10464878;28;20107;-67
2023/10/10 10:11:09;;;;;;;22.20;16.35;;;;;;;17.66;100.00;101765.53;10468827;28;20123;-67
2023/10/10 10:16:54;;;;;;;24.55;17.05;;;;;;;17.64;100.00;101751.66;10463778;28;20040;-67
2023/10/10 10:22:17;;;;;;;32.33;18.20;;;;;;;17.68;100.00;101774.19;10468273;28;20056;-66
2023/10/10 10:27:40;;;;;;;35.95;19.88;;;;;;;17.65;100.00;101780.41;10479593;28;20119;-66
2023/10/10 10:33:02;;;;;;;34.72;19.90;;;;;;;17.65;100.00;101776.94;10477840;28;20048;-67
2023/10/10 10:38:24;;;;;;;38.20;21.00;;;;;;;17.62;100.00;101763.97;10476267;28;20516;-67
2023/10/10 10:43:49;;;;;;;44.42;22.42;;;;;;;17.54;100.00;101758.25;10484855;28;20055;-66
2023/10/10 10:49:15;;;;;;;48.25;23.73;;;;;;;17.50;100.00;101738.34;10472502;28;20064;-66
2023/10/10 10:54:36;;;;;;;43.83;22.95;;;;;;;17.53;100.00;101746.06;10487326;28;20045;-66
2023/10/10 10:59:59;;;;;;;49.58;25.10;;;;;;;17.53;100.00;101738.19;10469779;28;20048;-66
2023/10/10 11:05:29;;;;;;;55.92;25.90;;;;;;;17.54;100.00;101724.22;10467499;28;20043;-66
2023/10/10 11:10:50;;;;;;;53.78;25.83;;;;;;;17.59;100.00;101727.47;10476501;28;20044;-66
2023/10/10 11:16:12;;;;;;;50.05;26.25;;;;;;;17.72;100.00;101718.16;10486572;28;20062;-66
2023/10/10 11:21:34;;;;;;;57.25;25.25;;;;;;;17.81;100.00;101717.72;10478469;28;20546;-66
2023/10/10 11:27:43;;;;;;;56.65;25.50;;;;;;;17.88;100.00;101703.44;10469620;28;20048;-66
2023/10/10 11:32:47;;;;;;;47.92;24.10;;;;;;;17.97;100.00;101688.16;10489398;28;20053;-66
2023/10/10 11:38:15;;;;;;;44.55;22.63;;;;;;;18.05;100.00;101679.94;10467388;28;20072;-66
2023/10/10 11:43:54;;;;;;;44.78;22.67;;;;;;;18.09;100.00;101676.25;10487653;28;20048;-66
2023/10/10 11:49:16;;;;;;;42.50;22.65;;;;;;;18.23;100.00;101668.56;10478019;28;20049;-67
2023/10/10 11:54:44;;;;;;;38.03;21.83;;;;;;;18.35;100.00;101662.72;10461305;28;20573;-66
2023/10/10 12:00:11;;;;;;;42.40;22.45;;;;;;;18.53;100.00;101656.59;10469202;28;20048;-67
2023/10/10 12:05:51;;;;;;;40.05;22.35;;;;;;;18.73;100.00;101653.84;10472020;28;20055;-66
2023/10/10 12:11:15;;;;;;;42.28;22.20;;;;;;;18.81;100.00;101649.06;10457131;28;20103;-66
2023/10/10 12:16:37;;;;;;;39.92;22.23;;;;;;;18.98;100.00;101651.69;10470657;28;20049;-66
2023/10/10 12:22:07;;;;;;;44.20;22.75;;;;;;;19.10;100.00;101651.97;10464502;28;20056;-66
2023/10/10 12:27:30;;;;;;;38.35;22.33;;;;;;;19.20;100.00;101642.69;10471245;28;20128;-66
2023/10/10 12:32:52;;;;;;;43.30;24.85;;;;;;;19.30;98.83;101643.91;10470727;28;20044;-66
2023/10/10 12:38:20;;;;;;;48.50;24.75;;;;;;;19.43;98.50;101631.84;10463089;28;20061;-66
2023/10/10 12:43:42;;;;;;;48.35;24.67;;;;;;;19.59;96.58;101627.47;10466961;28;20048;-66
2023/10/10 12:49:04;;;;;;;44.30;25.35;;;;;;;19.69;96.48;101632.13;10467029;28;20051;-66
2023/10/10 12:54:27;;;;;;;41.63;25.52;;;;;;;19.64;96.64;101613.16;10460043;28;20137;-66
2023/10/10 12:59:51;;;;;;;45.60;25.55;;;;;;;19.63;97.65;101605.38;10468526;28;20052;-66
2023/10/10 13:05:13;;;;;;;43.20;24.55;;;;;;;19.67;97.22;101606.88;10465098;28;20447;-66
2023/10/10 13:10:37;;;;;;;47.83;25.92;;;;;;;19.76;96.61;101593.25;10461798;28;20049;-66
2023/10/10 13:16:22;;;;;;;46.77;26.97;;;;;;;19.73;95.24;101578.50;10469584;28;20059;-66
2023/10/10 13:21:44;;;;;;;54.88;25.67;;;;;;;19.86;95.34;101591.78;10456246;28;20045;-66
2023/10/10 13:27:06;;;;;;;41.60;24.85;;;;;;;19.86;95.70;101603.16;10476993;28;20040;-65
2023/10/10 13:32:28;;;;;;;46.35;24.95;;;;;;;19.87;95.70;101590.84;10465756;28;20048;-66
2023/10/10 13:37:50;;;;;;;42.03;23.27;;;;;;;19.92;94.65;101591.44;10457570;28;20072;-66
2023/10/10 13:43:16;;;;;;;40.67;22.75;;;;;;;19.91;93.60;101595.84;10478271;28;20088;-65
2023/10/10 13:48:39;;;;;;;37.08;19.98;;;;;;;19.96;92.77;101592.97;10479046;28;20511;-65
2023/10/10 13:54:02;;;;;;;35.35;19.95;;;;;;;19.99;92.67;101582.28;10476212;28;20662;-65
2023/10/10 13:59:24;;;;;;;34.80;19.55;;;;;;;19.94;94.02;101584.34;10492645;28;20393;-66
2023/10/10 14:04:48;;;;;;;37.97;19.55;;;;;;;19.98;93.41;101578.78;10475051;28;20044;-66
2023/10/10 14:10:09;;;;;;;36.95;20.08;;;;;;;19.95;92.38;101565.00;10480161;28;20091;-66
2023/10/10 14:15:31;;;;;;;37.53;21.17;;;;;;;19.94;91.99;101569.38;10478104;28;20045;-66
2023/10/10 14:20:53;;;;;;;44.22;21.52;;;;;;;19.92;92.45;101552.03;10473982;28;20048;-66
2023/10/10 14:26:18;;;;;;;38.67;21.25;;;;;;;19.87;93.47;101546.19;10475485;28;20045;-66
2023/10/10 14:31:44;;;;;;;38.13;20.67;;;;;;;19.87;94.14;101551.44;10478841;28;20045;-66
2023/10/10 14:37:07;;;;;;;42.33;22.33;;;;;;;19.85;93.71;101548.91;10485788;28;20136;-67
2023/10/10 14:42:47;;;;;;;36.67;20.00;;;;;;;19.83;94.78;101528.91;10492474;28;20505;-66
2023/10/10 14:48:15;;;;;;;38.63;21.08;;;;;;;19.83;93.57;101524.47;10478990;28;20036;-66
2023/10/10 14:53:40;;;;;;;34.50;20.67;;;;;;;19.81;94.32;101515.84;10474572;28;20049;-66
2023/10/10 14:59:07;;;;;;;34.58;20.63;;;;;;;19.87;94.03;101510.25;10493540;28;20054;-66
2023/10/10 15:04:28;;;;;;;35.63;19.75;;;;;;;19.88;94.53;101508.47;10477326;28;20501;-66
2023/10/10 15:09:50;;;;;;;36.90;20.27;;;;;;;19.93;93.76;101507.28;10478438;28;20060;-66
2023/10/10 15:15:12;;;;;;;39.72;19.23;;;;;;;19.92;93.56;101492.44;10481605;28;20070;-66
2023/10/10 15:20:34;;;;;;;34.38;18.52;;;;;;;19.94;93.41;101501.06;10475405;28;20041;-66
2023/10/10 15:26:04;;;;;;;27.20;17.23;;;;;;;19.87;94.19;101477.88;10473300;28;20051;-66
2023/10/10 15:31:31;;;;;;;30.63;17.70;;;;;;;19.88;94.06;101490.09;10496049;28;20036;-66
2023/10/10 15:36:53;;;;;;;35.10;17.02;;;;;;;19.86;93.78;101484.06;10465960;28;20477;-66
2023/10/10 15:42:15;;;;;;;31.90;15.48;;;;;;;19.82;94.53;101480.78;10485347;28;20533;-66
2023/10/10 15:47:37;;;;;;;26.77;15.20;;;;;;;19.76;94.63;101475.03;10480967;28;20405;-66
2023/10/10 15:52:59;;;;;;;25.13;12.93;;;;;;;19.75;94.45;101478.59;10481960;28;20542;-66
2023/10/10 15:58:23;;;;;;;27.65;12.75;;;;;;;19.76;93.53;101464.53;10490067;28;20382;-66
2023/10/10 16:03:47;;;;;;;21.08;11.80;;;;;;;19.73;92.94;101457.66;10473830;28;20577;-67
2023/10/10 16:14:36;;;;;;;19.80;11.20;;;;;;;19.63;93.58;101466.16;10480694;28;20486;-66
2023/10/10 16:19:58;;;;;;;22.88;10.65;;;;;;;19.59;93.67;101462.03;10465401;28;20056;-66
2023/10/10 16:25:23;;;;;;;20.27;9.90;;;;;;;19.56;93.34;101463.03;10473558;28;20056;-66
2023/10/10 16:30:45;;;;;;;18.17;11.27;;;;;;;19.57;92.83;101470.00;10487420;28;20040;-66
2023/10/10 16:36:09;;;;;;;17.67;9.65;;;;;;;19.45;93.72;101472.47;10478387;28;20044;-66
2023/10/10 16:41:34;;;;;;;13.73;8.98;;;;;;;19.45;91.41;101454.09;10476023;28;20040;-66
2023/10/10 16:46:56;;;;;;;16.65;8.52;;;;;;;19.45;91.71;101460.16;10482242;28;20084;-66
2023/10/10 16:52:19;;;;;;;17.75;8.40;;;;;;;19.37;91.76;101451.03;10479432;28;20159;-66
2023/10/10 16:57:43;;;;;;;22.15;8.88;;;;;;;19.35;91.62;101456.38;10476869;28;20075;-66
2023/10/10 17:03:05;;;;;;;16.15;8.23;;;;;;;19.34;91.25;101469.59;10470601;28;20051;-66
2023/10/10 17:08:31;;;;;;;17.15;8.75;;;;;;;19.27;90.64;101463.78;10457882;28;20045;-66
2023/10/10 17:13:53;;;;;;;14.10;8.45;;;;;;;19.29;89.78;101468.94;10466195;28;20037;-66
2023/10/10 17:19:19;;;;;;;14.43;7.72;;;;;;;19.27;90.08;101461.16;10476360;28;20479;-66
2023/10/10 17:24:41;;;;;;;15.02;8.13;;;;;;;19.24;90.05;101460.50;10477436;28;20048;-66
2023/10/10 17:30:06;;;;;;;19.48;8.00;;;;;;;19.20;89.75;101461.59;10479574;28;20106;-66
2023/10/10 17:35:30;;;;;;;16.02;7.88;;;;;;;19.16;90.80;101453.03;10470995;28;20041;-66
2023/10/10 17:40:51;;;;;;;16.77;8.00;;;;;;;19.11;89.88;101449.84;10474181;28;20072;-66
2023/10/10 17:46:20;;;;;;;17.40;7.60;;;;;;;19.02;90.81;101445.97;10476751;28;20380;-66
2023/10/10 17:51:44;;;;;;;13.50;7.18;;;;;;;18.98;90.76;101444.44;10478843;28;20041;-66
2023/10/10 17:57:09;;;;;;;17.65;8.00;;;;;;;18.87;90.25;101438.91;10473248;28;20044;-66
2023/10/10 18:02:31;;;;;;;16.42;6.95;;;;;;;18.82;91.44;101433.09;10474929;28;20049;-66
2023/10/10 18:07:57;;;;;;;17.75;7.32;;;;;;;18.74;90.67;101434.41;10471352;28;20147;-66
2023/10/10 18:13:19;;;;;;;13.80;7.07;;;;;;;18.71;91.10;101430.19;10476475;28;20060;-66
2023/10/10 18:18:43;;;;;;;13.23;7.40;;;;;;;18.66;91.07;101423.50;10473017;28;20041;-66
2023/10/10 18:24:06;;;;;;;16.88;7.57;;;;;;;18.60;90.29;101416.81;10467120;28;20061;-66
2023/10/10 18:29:28;;;;;;;12.85;7.18;;;;;;;18.56;91.10;101403.94;10480942;28;20048;-66
2023/10/10 18:34:50;;;;;;;14.00;6.85;;;;;;;18.47;91.85;101407.91;10478894;28;20040;-66
2023/10/10 18:40:11;;;;;;;12.45;6.70;;;;;;;18.43;90.83;101402.91;10484579;28;20048;-66
2023/10/10 18:45:37;;;;;;;13.00;7.22;;;;;;;18.50;90.49;101402.50;10504164;28;20369;-65
2023/10/10 18:51:00;;;;;;;15.68;7.35;;;;;;;18.46;90.29;101398.34;10493334;28;20456;-65
2023/10/10 18:56:22;;;;;;;14.35;7.30;;;;;;;18.42;88.50;101396.78;10487046;28;20044;-65
2023/10/10 19:01:44;;;;;;;13.55;7.18;;;;;;;18.44;89.53;101397.56;10486941;28;20044;-65
2023/10/10 19:07:06;;;;;;;13.93;7.32;;;;;;;18.41;88.50;101387.25;10478369;28;20143;-65
2023/10/10 19:12:27;;;;;;;15.23;8.15;;;;;;;18.39;88.36;101378.59;10498194;28;20056;-65
2023/10/10 19:17:50;;;;;;;16.67;7.18;;;;;;;18.39;88.44;101372.50;10485500;28;20370;-65
2023/10/10 19:23:14;;;;;;;12.82;7.00;;;;;;;18.43;88.24;101372.28;10488722;28;20429;-65
2023/10/10 19:28:36;;;;;;;15.77;7.22;;;;;;;18.41;88.30;101366.28;10491581;28;20052;-65
2023/10/10 19:33:57;;;;;;;17.33;7.90;;;;;;;18.37;88.24;101356.84;10487718;28;20055;-65
2023/10/10 19:39:21;;;;;;;13.23;7.15;;;;;;;18.38;87.77;101345.47;10489106;28;20072;-66
2023/10/10 19:44:43;;;;;;;13.40;7.43;;;;;;;18.37;87.05;101346.38;10486578;28;20048;-66
2023/10/10 19:50:08;;;;;;;16.92;7.30;;;;;;;18.38;87.30;101337.59;10492103;28;20428;-66
2023/10/10 19:55:33;;;;;;;14.52;7.40;;;;;;;18.33;88.55;101329.13;10480244;28;20037;-66
2023/10/10 20:00:57;;;;;;;14.40;7.80;;;;;;;18.29;88.61;101332.84;10488818;28;20044;-66
2023/10/10 20:06:22;;;;;;;13.70;6.85;;;;;;;18.21;88.86;101315.84;10488173;28;20041;-66
2023/10/10 20:11:45;;;;;;;12.90;6.93;;;;;;;18.19;87.81;101310.69;10479255;28;20508;-66
2023/10/10 20:17:07;;;;;;;15.80;7.10;;;;;;;18.19;88.79;101302.81;10487307;28;20052;-66
2023/10/10 20:22:32;;;;;;;14.32;7.13;;;;;;;18.13;88.99;101292.66;10498201;28;20052;-66
2023/10/10 20:27:53;;;;;;;16.00;7.07;;;;;;;18.11;87.61;101289.31;10477262;28;20478;-66
2023/10/10 20:33:15;;;;;;;22.27;7.72;;;;;;;18.10;87.99;101284.97;10482244;28;20080;-66
2023/10/10 20:38:42;;;;;;;14.60;6.95;;;;;;;18.21;87.56;101292.25;10486977;28;20048;-66
2023/10/10 20:44:04;;;;;;;18.45;7.00;;;;;;;18.22;87.14;101283.47;10474546;28;20456;-66
2023/10/10 20:49:27;;;;;;;18.05;6.88;;;;;;;18.22;86.15;101281.69;10485900;28;20390;-66
2023/10/10 20:54:48;;;;;;;13.63;6.88;;;;;;;18.20;87.47;101283.56;10480855;28;20052;-66
2023/10/10 21:00:19;;;;;;;15.40;7.20;;;;;;;18.28;86.06;101278.75;10484033;28;20050;-66
2023/10/10 21:05:42;;;;;;;15.25;6.63;;;;;;;18.20;85.36;101260.00;10478501;28;20489;-66
2023/10/10 21:11:11;;;;;;;17.23;6.82;;;;;;;18.20;85.52;101243.41;10481040;28;20101;-66
2023/10/10 21:16:34;;;;;;;12.85;6.28;;;;;;;18.26;85.45;101254.38;10476906;28;20497;-66
2023/10/10 21:21:56;;;;;;;11.23;6.53;;;;;;;18.22;86.44;101245.00;10478750;28;20055;-66
2023/10/10 21:27:18;;;;;;;13.90;6.20;;;;;;;18.17;85.04;101243.56;10485284;28;20404;-66
2023/10/10 21:32:40;;;;;;;13.10;6.65;;;;;;;18.16;85.11;101237.50;10483341;28;20056;-66
2023/10/10 21:38:02;;;;;;;12.80;5.60;;;;;;;18.17;85.83;101225.22;10472861;28;20068;-66
2023/10/10 21:43:24;;;;;;;13.18;5.88;;;;;;;18.15;85.38;101209.59;10475544;28;20500;-66
2023/10/10 21:48:48;;;;;;;11.10;5.65;;;;;;;18.16;85.13;101224.41;10483902;28;20049;-66
2023/10/10 21:54:10;;;;;;;21.70;5.93;;;;;;;18.14;85.01;101215.78;10471689;28;20056;-66
2023/10/10 21:59:33;;;;;;;20.08;5.40;;;;;;;18.12;84.42;101199.28;10476030;28;20041;-66
2023/10/10 22:04:55;;;;;;;12.75;5.32;;;;;;;18.17;84.38;101205.13;10478925;28;20051;-66
2023/10/10 22:10:21;;;;;;;9.30;5.00;;;;;;;18.07;84.01;101207.38;10488654;28;20084;-66
2023/10/10 22:15:43;;;;;;;9.05;5.25;;;;;;;18.06;84.51;101195.25;10483499;28;20493;-66
2023/10/10 22:21:09;;;;;;;11.52;5.35;;;;;;;18.05;84.23;101193.56;10477595;28;20525;-66
2023/10/10 22:26:31;;;;;;;16.65;5.43;;;;;;;18.15;83.78;101198.28;10492592;28;20047;-66
2023/10/10 22:31:53;;;;;;;14.18;5.72;;;;;;;18.17;83.71;101192.03;10508747;28;20044;-66
2023/10/10 22:37:15;;;;;;;13.65;4.88;;;;;;;18.11;82.47;101160.09;10487500;28;20449;-66
2023/10/10 22:42:38;;;;;;;12.38;4.88;;;;;;;18.14;81.36;101155.53;10483457;28;20048;-66
2023/10/10 22:48:01;;;;;;;17.58;4.97;;;;;;;18.14;82.37;101154.66;10479068;28;20142;-66
2023/10/10 22:53:23;;;;;;;10.57;4.93;;;;;;;18.08;82.75;101155.84;10494331;28;20489;-66
2023/10/10 22:58:44;;;;;;;10.93;4.40;;;;;;;18.06;82.05;101148.09;10499640;28;20048;-66
2023/10/10 23:04:07;;;;;;;9.63;4.57;;;;;;;18.06;81.98;101145.47;10480989;28;20044;-66
2023/10/10 23:09:30;;;;;;;14.05;4.57;;;;;;;18.08;82.20;101150.63;10491009;28;20147;-66
2023/10/10 23:14:56;;;;;;;8.98;4.20;;;;;;;18.10;81.46;101159.25;10483955;28;20045;-66
2023/10/10 23:20:20;;;;;;;14.88;4.78;;;;;;;18.07;81.87;101168.09;10477399;28;20037;-66
2023/10/10 23:25:43;;;;;;;9.27;4.35;;;;;;;18.02;81.14;101148.34;10477804;28;20416;-66
2023/10/10 23:30:45;;;;;;;9.48;4.88;;;;;;;17.98;81.11;101158.13;10482905;28;20496;-66
2023/10/10 23:35:50;;;;;;;10.25;4.57;;;;;;;17.99;81.68;101156.38;10481839;28;20055;-66
2023/10/10 23:40:56;;;;;;;12.15;4.63;;;;;;;17.95;82.89;101149.59;10480117;28;20110;-66
2023/10/10 23:45:59;;;;;;;11.63;4.50;;;;;;;17.92;82.08;101147.16;10497912;28;20048;-66
2023/10/10 23:51:06;;;;;;;10.85;4.80;;;;;;;17.84;81.13;101146.72;10492260;28;20048;-66
2023/10/10 23:56:08;;;;;;;9.00;4.15;;;;;;;17.81;81.14;101141.66;10487737;28;20056;-66
